createdAt,value
2019-05-05T00:01:34.484Z,2.93
2019-05-05T00:04:21.892Z,2.97
2019-05-05T00:06:51.950Z,2.89
2019-05-05T00:09:22.309Z,2.85
2019-05-05T00:12:01.660Z,2.79
2019-05-05T00:14:41.426Z,2.78
2019-05-05T00:17:16.589Z,2.78
2019-05-05T00:19:46.556Z,2.76
2019-05-05T00:22:16.606Z,2.69
2019-05-05T00:24:46.573Z,2.61
2019-05-05T00:27:16.575Z,2.54
2019-05-05T00:29:46.926Z,2.50
2019-05-05T00:32:17.005Z,2.45
2019-05-05T00:34:47.017Z,2.48
2019-05-05T00:37:17.005Z,2.50
2019-05-05T00:39:47.024Z,2.53
2019-05-05T00:42:17.323Z,2.59
2019-05-05T00:44:47.280Z,2.54
2019-05-05T00:47:39.943Z,2.53
2019-05-05T00:50:11.783Z,2.56
2019-05-05T00:52:41.807Z,2.57
2019-05-05T00:55:12.366Z,2.54
2019-05-05T00:57:42.380Z,2.54
2019-05-05T01:00:28.618Z,2.52
2019-05-05T01:02:58.716Z,2.51
2019-05-05T01:05:46.478Z,2.52
2019-05-05T01:08:20.134Z,2.53
2019-05-05T01:10:50.520Z,2.57
2019-05-05T01:13:20.460Z,2.48
2019-05-05T01:15:50.393Z,2.46
2019-05-05T01:18:20.465Z,2.46
2019-05-05T01:20:50.583Z,2.46
2019-05-05T01:23:20.680Z,2.50
2019-05-05T01:25:50.736Z,2.45
2019-05-05T01:28:20.850Z,2.34
2019-05-05T01:30:54.970Z,2.31
2019-05-05T01:33:31.402Z,2.30
2019-05-05T01:36:01.672Z,2.17
2019-05-05T01:38:44.654Z,2.18
2019-05-05T01:41:25.315Z,2.14
2019-05-05T01:43:55.317Z,2.12
2019-05-05T01:46:25.305Z,2.07
2019-05-05T01:48:55.370Z,1.98
2019-05-05T01:51:25.665Z,1.94
2019-05-05T01:53:55.737Z,1.93
2019-05-05T01:56:26.124Z,1.85
2019-05-05T01:58:56.402Z,1.79
2019-05-05T02:01:26.591Z,1.93
2019-05-05T02:03:56.586Z,1.96
2019-05-05T02:06:26.645Z,1.94
2019-05-05T02:09:07.310Z,1.85
2019-05-05T02:11:37.576Z,1.81
2019-05-05T02:14:07.609Z,1.81
2019-05-05T02:16:37.719Z,1.76
2019-05-05T02:19:07.803Z,1.72
2019-05-05T02:21:37.871Z,1.64
2019-05-05T02:24:08.092Z,1.67
2019-05-05T02:26:38.207Z,1.70
2019-05-05T02:29:14.280Z,1.78
2019-05-05T02:32:01.983Z,1.86
2019-05-05T02:34:35.829Z,1.90
2019-05-05T02:37:06.137Z,1.94
2019-05-05T02:39:39.270Z,2.00
2019-05-05T02:42:08.138Z,2.09
2019-05-05T02:44:39.338Z,2.15
2019-05-05T02:47:18.717Z,2.22
2019-05-05T02:49:49.400Z,2.27
2019-05-05T02:52:24.436Z,2.22
2019-05-05T02:54:54.091Z,2.30
2019-05-05T02:57:24.855Z,2.27
2019-05-05T03:00:00.151Z,2.27
2019-05-05T03:02:35.267Z,2.33
2019-05-05T03:05:05.729Z,2.39
2019-05-05T03:07:36.988Z,2.44
2019-05-05T03:10:08.080Z,2.32
2019-05-05T03:12:41.186Z,2.32
2019-05-05T03:15:19.641Z,2.32
2019-05-05T03:17:49.878Z,2.23
2019-05-05T03:20:19.907Z,2.29
2019-05-05T03:22:50.075Z,2.38
2019-05-05T03:25:20.230Z,2.29
2019-05-05T03:27:50.373Z,2.30
2019-05-05T03:30:20.856Z,2.27
2019-05-05T03:32:51.279Z,2.31
2019-05-05T03:35:21.202Z,2.32
2019-05-05T03:37:51.372Z,2.24
2019-05-05T03:40:25.797Z,2.23
2019-05-05T03:43:00.916Z,2.27
2019-05-05T03:45:50.097Z,2.26
2019-05-05T03:48:20.315Z,2.28
2019-05-05T03:50:51.090Z,2.24
2019-05-05T03:53:21.235Z,2.29
2019-05-05T03:55:54.361Z,2.27
2019-05-05T03:58:24.297Z,2.24
2019-05-05T04:01:57.976Z,2.29
2019-05-05T04:04:30.090Z,2.26
2019-05-05T04:07:00.492Z,2.24
2019-05-05T04:09:30.915Z,2.31
2019-05-05T04:12:00.939Z,2.25
2019-05-05T04:14:30.982Z,2.27
2019-05-05T04:17:11.200Z,2.20
2019-05-05T04:19:44.184Z,2.18
2019-05-05T04:22:14.094Z,2.19
2019-05-05T04:24:44.092Z,2.22
2019-05-05T04:27:14.657Z,2.27
2019-05-05T04:29:44.835Z,2.24
2019-05-05T04:32:14.809Z,2.27
2019-05-05T04:34:44.831Z,2.28
2019-05-05T04:37:15.118Z,2.30
2019-05-05T04:39:45.261Z,2.28
2019-05-05T04:42:15.216Z,2.31
2019-05-05T04:44:45.198Z,2.34
2019-05-05T04:47:24.035Z,2.23
2019-05-05T04:50:18.285Z,2.32
2019-05-05T04:52:48.585Z,2.34
2019-05-05T04:55:18.497Z,2.36
2019-05-05T04:57:48.633Z,2.41
2019-05-05T05:00:18.732Z,2.36
2019-05-05T05:02:59.726Z,2.30
2019-05-05T05:05:48.576Z,2.36
2019-05-05T05:08:18.584Z,2.44
2019-05-05T05:10:48.474Z,2.52
2019-05-05T05:13:18.461Z,2.49
2019-05-05T05:15:48.647Z,2.42
2019-05-05T05:18:18.586Z,2.46
2019-05-05T05:20:48.793Z,2.35
2019-05-05T05:23:18.718Z,2.54
2019-05-05T05:25:48.599Z,2.68
2019-05-05T05:28:18.543Z,2.89
2019-05-05T05:30:48.436Z,2.76
2019-05-05T05:33:18.369Z,2.58
2019-05-05T05:35:48.266Z,2.63
2019-05-05T05:38:18.174Z,2.76
2019-05-05T05:41:04.293Z,2.54
2019-05-05T05:43:48.532Z,2.50
2019-05-05T05:46:28.657Z,2.57
2019-05-05T05:49:10.441Z,2.79
2019-05-05T05:51:40.357Z,3.01
2019-05-05T05:54:10.480Z,2.94
2019-05-05T05:56:40.502Z,2.93
2019-05-05T05:59:10.673Z,2.79
2019-05-05T06:01:40.813Z,2.94
2019-05-05T06:04:10.811Z,3.02
2019-05-05T06:06:40.706Z,3.01
2019-05-05T06:09:11.015Z,2.90
2019-05-05T06:11:40.965Z,3.04
2019-05-05T06:14:10.935Z,3.05
2019-05-05T06:16:40.894Z,3.17
2019-05-05T06:19:10.813Z,3.17
2019-05-05T06:21:40.966Z,3.25
2019-05-05T06:24:10.950Z,3.49
2019-05-05T06:26:40.836Z,3.28
2019-05-05T06:29:10.777Z,3.38
2019-05-05T06:31:40.738Z,3.37
2019-05-05T06:34:10.660Z,3.19
2019-05-05T06:36:40.834Z,3.04
2019-05-05T06:39:10.761Z,2.88
2019-05-05T06:41:58.042Z,3.06
2019-05-05T06:44:45.196Z,2.85
2019-05-05T06:47:17.584Z,2.99
2019-05-05T06:49:47.580Z,3.26
2019-05-05T06:52:17.464Z,3.17
2019-05-05T06:54:47.387Z,3.55
2019-05-05T06:57:17.313Z,3.58
2019-05-05T06:59:47.232Z,3.20
2019-05-05T07:02:17.116Z,3.14
2019-05-05T07:04:46.988Z,2.94
2019-05-05T07:07:17.544Z,2.84
2019-05-05T07:09:47.456Z,3.09
2019-05-05T07:12:17.374Z,2.97
2019-05-05T07:14:47.519Z,3.17
2019-05-05T07:17:17.453Z,3.26
2019-05-05T07:19:47.369Z,3.52
2019-05-05T07:22:17.771Z,3.80
2019-05-05T07:24:47.808Z,3.42
2019-05-05T07:27:17.925Z,3.55
2019-05-05T07:29:47.858Z,3.76
2019-05-05T07:32:18.322Z,3.81
2019-05-05T07:35:07.226Z,3.80
2019-05-05T07:37:37.298Z,3.88
2019-05-05T07:40:08.057Z,4.52
2019-05-05T07:42:37.972Z,5.14
2019-05-05T07:45:20.199Z,5.53
2019-05-05T07:47:40.890Z,5.69
2019-05-05T07:50:24.942Z,6.36
2019-05-05T07:52:43.887Z,6.60
2019-05-05T07:55:14.406Z,6.64
2019-05-05T07:57:44.414Z,6.99
2019-05-05T08:00:14.914Z,7.55
2019-05-05T08:02:44.826Z,7.34
2019-05-05T08:05:15.071Z,7.14
2019-05-05T08:07:44.977Z,7.58
2019-05-05T08:10:15.104Z,7.92
2019-05-05T08:12:45.026Z,6.73
2019-05-05T08:15:17.908Z,6.88
2019-05-05T08:18:04.747Z,7.56
2019-05-05T08:20:38.218Z,6.77
2019-05-05T08:23:10.811Z,6.54
2019-05-05T08:25:45.783Z,6.41
2019-05-05T08:28:23.743Z,6.15
2019-05-05T08:31:04.683Z,7.01
2019-05-05T08:33:34.779Z,6.53
2019-05-05T08:36:04.784Z,6.87
2019-05-05T08:38:34.890Z,6.88
2019-05-05T08:41:04.788Z,6.93
2019-05-05T08:43:34.917Z,6.46
2019-05-05T08:46:05.116Z,6.60
2019-05-05T08:48:35.141Z,6.83
2019-05-05T08:51:05.238Z,7.09
2019-05-05T08:53:45.005Z,7.22
2019-05-05T08:56:06.878Z,6.93
2019-05-05T08:58:37.074Z,7.22
2019-05-05T09:01:07.095Z,8.64
2019-05-05T09:03:37.280Z,10.34
2019-05-05T09:06:07.568Z,11.65
2019-05-05T09:08:37.487Z,12.11
2019-05-05T09:11:07.724Z,11.32
2019-05-05T09:13:37.656Z,10.96
2019-05-05T09:16:07.621Z,9.65
2019-05-05T09:18:39.700Z,11.82
2019-05-05T09:21:09.588Z,13.13
2019-05-05T09:23:40.700Z,14.16
2019-05-05T09:26:25.682Z,13.66
2019-05-05T09:29:24.238Z,14.68
2019-05-05T09:31:54.220Z,12.55
2019-05-05T09:34:24.146Z,12.49
2019-05-05T09:36:54.493Z,11.70
2019-05-05T09:39:24.464Z,11.87
2019-05-05T09:41:54.480Z,13.06
2019-05-05T09:44:24.415Z,12.55
2019-05-05T09:46:54.569Z,13.19
2019-05-05T09:49:24.746Z,13.78
2019-05-05T09:51:54.720Z,12.59
2019-05-05T09:54:24.695Z,12.59
2019-05-05T09:56:55.482Z,13.56
2019-05-05T09:59:25.469Z,16.40
2019-05-05T10:01:55.717Z,13.77
2019-05-05T10:04:27.260Z,13.19
2019-05-05T10:06:57.310Z,11.63
2019-05-05T10:09:27.300Z,9.14
2019-05-05T10:11:57.451Z,8.99
2019-05-05T10:14:27.390Z,11.66
2019-05-05T10:16:57.647Z,15.52
2019-05-05T10:19:27.575Z,17.15
2019-05-05T10:21:57.636Z,17.11
2019-05-05T10:24:33.872Z,19.18
2019-05-05T10:27:04.909Z,12.36
2019-05-05T10:29:35.034Z,11.31
2019-05-05T10:32:05.091Z,10.67
2019-05-05T10:34:35.150Z,10.43
2019-05-05T10:37:05.175Z,10.41
2019-05-05T10:39:39.634Z,10.42
2019-05-05T10:42:09.933Z,12.14
2019-05-05T10:44:40.121Z,16.60
2019-05-05T10:47:10.244Z,19.33
2019-05-05T10:49:40.244Z,19.04
2019-05-05T10:52:10.175Z,16.26
2019-05-05T10:54:44.445Z,13.93
2019-05-05T10:57:14.345Z,12.92
2019-05-05T10:59:43.871Z,12.80
2019-05-05T11:02:14.134Z,12.47
2019-05-05T11:04:44.418Z,12.68
2019-05-05T11:07:14.770Z,13.91
2019-05-05T11:09:44.925Z,13.96
2019-05-05T11:12:15.137Z,13.76
2019-05-05T11:14:45.117Z,13.34
2019-05-05T11:17:15.056Z,14.43
2019-05-05T11:19:45.211Z,12.44
2019-05-05T11:22:15.229Z,13.70
2019-05-05T11:24:57.165Z,11.95
2019-05-05T11:27:16.817Z,12.34
2019-05-05T11:30:20.847Z,10.94
2019-05-05T11:33:08.366Z,11.12
2019-05-05T11:36:06.487Z,10.84
2019-05-05T11:38:36.394Z,10.19
2019-05-05T11:41:06.463Z,9.78
2019-05-05T11:43:36.373Z,10.59
2019-05-05T11:46:06.458Z,10.54
2019-05-05T11:48:36.498Z,10.26
2019-05-05T11:51:06.521Z,10.03
2019-05-05T11:53:36.628Z,9.10
2019-05-05T11:56:06.686Z,8.78
2019-05-05T11:58:36.565Z,8.56
2019-05-05T12:01:06.561Z,8.83
2019-05-05T12:03:37.871Z,9.36
2019-05-05T12:06:07.881Z,8.88
2019-05-05T12:08:37.865Z,9.49
2019-05-05T12:11:09.720Z,8.99
2019-05-05T12:13:39.587Z,8.76
2019-05-05T12:16:11.148Z,8.71
2019-05-05T12:18:41.263Z,8.53
2019-05-05T12:21:11.563Z,8.40
2019-05-05T12:23:41.670Z,8.15
2019-05-05T12:26:30.542Z,8.46
2019-05-05T12:29:20.525Z,7.58
2019-05-05T12:31:52.187Z,6.73
2019-05-05T12:34:23.666Z,7.32
2019-05-05T12:36:54.117Z,7.69
2019-05-05T12:39:24.144Z,8.45
2019-05-05T12:41:54.428Z,9.69
2019-05-05T12:44:34.107Z,10.93
2019-05-05T12:47:18.056Z,11.21
2019-05-05T12:49:48.008Z,13.02
2019-05-05T12:52:18.038Z,16.16
2019-05-05T12:54:47.979Z,18.65
2019-05-05T12:57:17.977Z,17.82
2019-05-05T12:59:47.922Z,16.03
2019-05-05T13:02:17.985Z,15.70
2019-05-05T13:04:48.199Z,14.74
2019-05-05T13:07:18.274Z,14.59
2019-05-05T13:09:48.437Z,14.95
2019-05-05T13:12:18.486Z,16.66
2019-05-05T13:14:48.377Z,15.60
2019-05-05T13:17:18.375Z,16.12
2019-05-05T13:20:03.099Z,13.26
2019-05-05T13:22:54.883Z,12.68
2019-05-05T13:25:36.349Z,12.90
2019-05-05T13:28:06.386Z,13.34
2019-05-05T13:30:36.270Z,13.32
2019-05-05T13:33:06.905Z,14.57
2019-05-05T13:35:36.942Z,18.80
2019-05-05T13:38:06.866Z,21.10
2019-05-05T13:40:37.419Z,22.56
2019-05-05T13:43:07.439Z,18.84
2019-05-05T13:45:46.661Z,14.06
2019-05-05T13:48:16.867Z,13.59
2019-05-05T13:50:53.872Z,12.81
2019-05-05T13:53:23.842Z,12.66
2019-05-05T13:55:58.362Z,12.61
2019-05-05T13:58:27.654Z,13.55
2019-05-05T14:00:57.579Z,13.06
2019-05-05T14:03:27.549Z,14.75
2019-05-05T14:05:57.694Z,16.44
2019-05-05T14:08:27.695Z,15.55
2019-05-05T14:10:57.645Z,14.72
2019-05-05T14:13:27.565Z,11.91
2019-05-05T14:15:57.458Z,11.16
2019-05-05T14:18:27.473Z,11.00
2019-05-05T14:20:57.469Z,10.16
2019-05-05T14:23:28.270Z,9.96
2019-05-05T14:25:58.160Z,9.29
2019-05-05T14:28:28.101Z,9.58
2019-05-05T14:31:08.040Z,9.31
2019-05-05T14:33:54.202Z,9.74
2019-05-05T14:36:33.407Z,10.28
2019-05-05T14:39:05.512Z,9.71
2019-05-05T14:41:35.508Z,9.81
2019-05-05T14:44:06.266Z,9.98
2019-05-05T14:46:36.237Z,10.46
2019-05-05T14:49:06.367Z,10.65
2019-05-05T14:51:36.216Z,10.61
2019-05-05T14:54:07.001Z,9.93
2019-05-05T14:56:36.989Z,9.31
2019-05-05T14:59:06.982Z,9.39
2019-05-05T15:01:37.021Z,10.58
2019-05-05T15:04:09.122Z,11.73
2019-05-05T15:06:49.266Z,11.99
2019-05-05T15:09:24.819Z,13.60
2019-05-05T15:12:28.591Z,13.18
2019-05-05T15:14:58.624Z,12.78
2019-05-05T15:17:28.683Z,10.86
2019-05-05T15:19:58.932Z,10.67
2019-05-05T15:22:28.946Z,10.87
2019-05-05T15:24:58.894Z,11.44
2019-05-05T15:27:28.837Z,13.60
2019-05-05T15:29:58.968Z,15.30
2019-05-05T15:32:29.330Z,16.22
2019-05-05T15:34:59.238Z,14.05
2019-05-05T15:37:30.872Z,13.30
2019-05-05T15:40:00.747Z,14.16
2019-05-05T15:42:30.818Z,14.58
2019-05-05T15:45:00.783Z,14.05
2019-05-05T15:47:30.734Z,14.47
2019-05-05T15:50:00.947Z,14.58
2019-05-05T15:52:31.369Z,12.33
2019-05-05T15:55:01.276Z,11.15
2019-05-05T15:57:31.274Z,11.02
2019-05-05T16:00:01.190Z,10.68
2019-05-05T16:02:31.430Z,10.38
2019-05-05T16:05:01.426Z,11.22
2019-05-05T16:07:33.278Z,10.43
2019-05-05T16:10:04.099Z,10.58
2019-05-05T16:12:39.202Z,10.22
2019-05-05T16:15:22.076Z,10.09
2019-05-05T16:18:10.910Z,10.13
2019-05-05T16:20:45.507Z,9.95
2019-05-05T16:23:17.901Z,9.98
2019-05-05T16:25:48.243Z,9.86
2019-05-05T16:28:18.252Z,9.79
2019-05-05T16:30:48.479Z,9.53
2019-05-05T16:33:18.510Z,9.47
2019-05-05T16:35:49.128Z,9.27
2019-05-05T16:38:19.143Z,9.38
2019-05-05T16:40:49.289Z,9.38
2019-05-05T16:43:19.323Z,9.28
2019-05-05T16:45:49.313Z,9.47
2019-05-05T16:48:19.404Z,9.17
2019-05-05T16:50:49.353Z,9.42
2019-05-05T16:53:38.339Z,9.90
2019-05-05T16:56:10.857Z,9.85
2019-05-05T16:58:41.119Z,9.70
2019-05-05T17:01:14.571Z,9.45
2019-05-05T17:03:45.832Z,9.46
2019-05-05T17:06:15.970Z,9.85
2019-05-05T17:08:46.122Z,9.94
2019-05-05T17:11:16.076Z,9.99
2019-05-05T17:14:19.907Z,9.96
2019-05-05T17:17:11.505Z,9.53
2019-05-05T17:19:54.595Z,9.66
2019-05-05T17:22:30.326Z,8.91
2019-05-05T17:25:02.115Z,8.86
2019-05-05T17:27:44.829Z,8.37
2019-05-05T17:30:04.497Z,8.26
2019-05-05T17:32:34.579Z,8.18
2019-05-05T17:35:04.787Z,8.08
2019-05-05T17:37:34.675Z,7.95
2019-05-05T17:40:24.254Z,7.93
2019-05-05T17:43:25.158Z,7.88
2019-05-05T17:46:00.938Z,7.81
2019-05-05T17:48:37.333Z,7.74
2019-05-05T17:51:23.789Z,7.70
2019-05-05T17:54:10.679Z,7.63
2019-05-05T17:56:40.606Z,7.69
2019-05-05T17:59:10.604Z,7.61
2019-05-05T18:01:40.504Z,7.56
2019-05-05T18:04:10.755Z,7.68
2019-05-05T18:06:53.641Z,7.56
2019-05-05T18:09:28.588Z,7.51
2019-05-05T18:12:13.950Z,7.44
2019-05-05T18:14:44.324Z,7.41
2019-05-05T18:17:14.411Z,7.30
2019-05-05T18:19:44.385Z,7.19
2019-05-05T18:22:14.509Z,7.06
2019-05-05T18:24:44.716Z,6.96
2019-05-05T18:27:14.852Z,6.79
2019-05-05T18:29:44.835Z,6.69
2019-05-05T18:32:14.787Z,6.62
2019-05-05T18:34:44.945Z,6.41
2019-05-05T18:37:15.455Z,6.28
2019-05-05T18:39:45.618Z,6.12
2019-05-05T18:42:19.601Z,6.00
2019-05-05T18:44:53.922Z,5.97
2019-05-05T18:47:25.103Z,5.78
2019-05-05T18:49:55.836Z,5.58
2019-05-05T18:52:25.739Z,5.52
2019-05-05T18:54:55.641Z,5.39
2019-05-05T18:57:25.710Z,5.28
2019-05-05T18:59:55.645Z,5.29
2019-05-05T19:02:50.558Z,5.12
2019-05-05T19:05:44.141Z,4.82
2019-05-05T19:08:33.045Z,4.76
2019-05-05T19:11:03.744Z,4.66
2019-05-05T19:13:34.144Z,4.45
2019-05-05T19:16:04.691Z,4.18
2019-05-05T19:18:34.584Z,4.16
2019-05-05T19:21:14.268Z,4.09
2019-05-05T19:23:44.808Z,3.90
2019-05-05T19:26:14.791Z,3.97
2019-05-05T19:28:49.833Z,4.03
2019-05-05T19:31:16.479Z,4.10
2019-05-05T19:33:46.368Z,4.12
2019-05-05T19:36:16.446Z,4.18
2019-05-05T19:38:46.374Z,4.18
2019-05-05T19:41:16.326Z,4.07
2019-05-05T19:43:55.338Z,4.06
2019-05-05T19:46:34.553Z,4.10
2019-05-05T19:49:19.565Z,4.07
2019-05-05T19:51:49.889Z,3.97
2019-05-05T19:54:20.092Z,3.97
2019-05-05T19:56:50.011Z,3.79
2019-05-05T19:59:20.004Z,3.71
2019-05-05T20:01:50.121Z,3.49
2019-05-05T20:04:20.023Z,3.34
2019-05-05T20:06:49.944Z,3.37
2019-05-05T20:09:19.834Z,3.41
2019-05-05T20:11:49.836Z,3.46
2019-05-05T20:14:19.794Z,3.41
2019-05-05T20:17:07.155Z,3.32
2019-05-05T20:19:44.155Z,3.24
2019-05-05T20:22:14.806Z,3.05
2019-05-05T20:24:44.767Z,2.96
2019-05-05T20:27:15.441Z,2.82
2019-05-05T20:29:45.552Z,2.91
2019-05-05T20:32:17.431Z,2.89
2019-05-05T20:35:24.336Z,2.82
2019-05-05T20:38:15.971Z,2.77
2019-05-05T20:40:55.744Z,2.73
2019-05-05T20:43:25.692Z,2.59
2019-05-05T20:45:56.223Z,2.63
2019-05-05T20:48:26.271Z,2.66
2019-05-05T20:50:56.164Z,2.85
2019-05-05T20:53:26.092Z,2.87
2019-05-05T20:55:56.229Z,2.76
2019-05-05T20:58:26.297Z,2.64
2019-05-05T21:00:56.210Z,2.62
2019-05-05T21:03:26.272Z,2.53
2019-05-05T21:05:56.276Z,2.38
2019-05-05T21:08:26.296Z,2.15
2019-05-05T21:10:56.188Z,2.03
2019-05-05T21:13:26.182Z,1.90
2019-05-05T21:15:56.083Z,1.93
2019-05-05T21:18:26.261Z,1.79
2019-05-05T21:20:58.430Z,1.79
2019-05-05T21:23:34.290Z,1.69
2019-05-05T21:26:07.082Z,1.73
2019-05-05T21:28:37.091Z,1.53
2019-05-05T21:31:07.397Z,1.39
2019-05-05T21:33:37.357Z,1.38
2019-05-05T21:36:07.244Z,1.47
2019-05-05T21:38:37.161Z,1.46
2019-05-05T21:41:07.056Z,1.43
2019-05-05T21:43:37.708Z,1.38
2019-05-05T21:46:07.620Z,1.22
2019-05-05T21:48:37.535Z,1.29
2019-05-05T21:51:17.974Z,1.32
2019-05-05T21:53:53.241Z,1.26
2019-05-05T21:56:40.006Z,1.18
2019-05-05T21:59:10.161Z,1.10
2019-05-05T22:01:41.110Z,1.06
2019-05-05T22:04:13.180Z,0.80
2019-05-05T22:06:43.554Z,0.69
2019-05-05T22:09:14.697Z,0.56
2019-05-05T22:11:44.696Z,0.53
2019-05-05T22:14:14.857Z,0.39
2019-05-05T22:16:44.974Z,0.43
2019-05-05T22:19:15.147Z,0.43
2019-05-05T22:21:51.422Z,0.38
2019-05-05T22:24:22.814Z,0.30
2019-05-05T22:26:54.154Z,0.31
2019-05-05T22:29:25.099Z,0.45
2019-05-05T22:31:55.206Z,0.52
2019-05-05T22:34:25.258Z,0.45
2019-05-05T22:36:55.259Z,0.44
2019-05-05T22:39:25.182Z,0.45
2019-05-05T22:41:55.330Z,0.33
2019-05-05T22:44:25.403Z,0.41
2019-05-05T22:46:55.332Z,0.32
2019-05-05T22:49:25.271Z,0.20
2019-05-05T22:51:55.264Z,0.18
2019-05-05T22:54:25.355Z,0.14
2019-05-05T22:56:55.330Z,0.03
2019-05-05T22:59:26.184Z,-0.02
2019-05-05T23:01:56.557Z,-0.07
2019-05-05T23:04:44.005Z,-0.06
2019-05-05T23:07:20.141Z,-0.06
2019-05-05T23:09:50.933Z,-0.18
2019-05-05T23:12:20.877Z,-0.29
2019-05-05T23:14:50.815Z,-0.22
2019-05-05T23:17:45.483Z,-0.30
2019-05-05T23:21:15.821Z,-0.28
2019-05-05T23:23:56.181Z,-0.47
2019-05-05T23:26:27.123Z,-0.46
2019-05-05T23:28:57.103Z,-0.42
2019-05-05T23:31:27.011Z,-0.53
2019-05-05T23:33:57.037Z,-0.67
2019-05-05T23:36:27.177Z,-0.87
2019-05-05T23:38:57.119Z,-0.90
2019-05-05T23:41:27.044Z,-0.83
2019-05-05T23:43:56.977Z,-0.75
2019-05-05T23:46:27.225Z,-0.77
2019-05-05T23:48:57.181Z,-0.67
2019-05-05T23:51:27.132Z,-0.74
2019-05-05T23:53:57.033Z,-0.62
2019-05-05T23:56:27.049Z,-0.82
2019-05-05T23:58:57.276Z,-0.66
